createdAt,value
2023-02-22T00:02:10.459Z,66.20
2023-02-22T00:04:39.536Z,66.24
2023-02-22T00:07:07.124Z,66.25
2023-02-22T00:09:33.992Z,66.40
2023-02-22T00:12:01.187Z,66.41
2023-02-22T00:14:31.220Z,66.35
2023-02-22T00:16:59.608Z,66.44
2023-02-22T00:19:28.050Z,66.50
2023-02-22T00:21:54.931Z,66.61
2023-02-22T00:24:24.184Z,66.39
2023-02-22T00:26:55.363Z,66.42
2023-02-22T00:29:23.551Z,66.63
2023-02-22T00:31:50.554Z,66.54
2023-02-22T00:34:17.503Z,66.49
2023-02-22T00:36:48.712Z,66.49
2023-02-22T00:39:16.057Z,66.77
2023-02-22T00:41:43.273Z,66.73
2023-02-22T00:44:10.168Z,66.50
2023-02-22T00:46:36.939Z,66.68
2023-02-22T00:49:05.219Z,66.44
2023-02-22T00:51:32.068Z,66.42
2023-02-22T00:53:58.945Z,66.26
2023-02-22T00:56:25.757Z,66.44
2023-02-22T00:58:52.521Z,66.31
2023-02-22T01:01:19.600Z,66.60
2023-02-22T01:03:46.476Z,66.40
2023-02-22T01:06:13.309Z,66.55
2023-02-22T01:08:44.999Z,66.59
2023-02-22T01:11:12.438Z,66.57
2023-02-22T01:13:39.551Z,66.64
2023-02-22T01:16:10.436Z,66.60
2023-02-22T01:18:37.766Z,66.70
2023-02-22T01:21:05.617Z,66.72
2023-02-22T01:23:32.588Z,66.76
2023-02-22T01:25:59.335Z,66.54
2023-02-22T01:28:26.119Z,66.75
2023-02-22T01:30:53.021Z,66.42
2023-02-22T01:33:19.808Z,66.74
2023-02-22T01:35:46.849Z,66.66
2023-02-22T01:38:14.356Z,66.61
2023-02-22T01:40:44.160Z,66.78
2023-02-22T01:43:29.677Z,66.45
2023-02-22T01:46:27.564Z,66.75
2023-02-22T01:49:06.209Z,66.60
2023-02-22T01:52:02.006Z,66.70
2023-02-22T01:54:35.088Z,66.80
2023-02-22T01:57:32.173Z,66.94
2023-02-22T02:00:10.081Z,66.95
2023-02-22T02:02:47.531Z,66.96
2023-02-22T02:05:15.054Z,66.94
2023-02-22T02:07:45.391Z,67.08
2023-02-22T02:10:15.423Z,66.76
2023-02-22T02:12:46.813Z,66.86
2023-02-22T02:15:21.284Z,66.64
2023-02-22T02:17:51.146Z,66.76
2023-02-22T02:20:46.821Z,66.64
2023-02-22T02:24:02.388Z,66.89
2023-02-22T02:27:16.830Z,66.98
2023-02-22T02:30:28.061Z,67.10
2023-02-22T02:33:26.666Z,66.95
2023-02-22T02:36:13.784Z,66.82
2023-02-22T02:38:56.579Z,66.78
2023-02-22T02:41:34.169Z,67.06
2023-02-22T02:44:15.720Z,66.77
2023-02-22T02:46:56.204Z,66.89
2023-02-22T02:49:35.644Z,66.91
2023-02-22T02:52:04.918Z,66.80
2023-02-22T02:54:33.155Z,66.83
2023-02-22T02:57:00.100Z,66.59
2023-02-22T02:59:39.696Z,66.54
2023-02-22T03:02:31.414Z,66.55
2023-02-22T03:05:26.686Z,66.68
2023-02-22T03:08:31.706Z,66.67
2023-02-22T03:11:15.070Z,66.99
2023-02-22T03:14:25.162Z,66.91
2023-02-22T03:17:19.758Z,66.94
2023-02-22T03:20:05.305Z,67.22
2023-02-22T03:22:48.041Z,66.83
2023-02-22T03:25:22.909Z,66.75
2023-02-22T03:27:54.561Z,66.58
2023-02-22T03:30:35.861Z,66.67
2023-02-22T03:33:11.051Z,66.81
2023-02-22T03:35:48.072Z,66.66
2023-02-22T03:38:19.182Z,66.58
2023-02-22T03:40:51.281Z,66.48
2023-02-22T03:43:26.022Z,66.35
2023-02-22T03:45:53.350Z,66.09
2023-02-22T03:48:26.445Z,66.14
2023-02-22T03:50:53.728Z,66.38
2023-02-22T03:53:23.121Z,66.20
2023-02-22T03:55:51.731Z,66.27
2023-02-22T03:58:22.234Z,66.33
2023-02-22T04:00:52.951Z,66.36
2023-02-22T04:03:23.460Z,66.35
2023-02-22T04:05:50.508Z,66.53
2023-02-22T04:08:17.639Z,66.35
2023-02-22T04:10:44.482Z,66.16
2023-02-22T04:13:11.445Z,66.38
2023-02-22T04:15:38.235Z,66.20
2023-02-22T04:18:05.757Z,66.38
2023-02-22T04:20:32.562Z,66.09
2023-02-22T04:22:59.341Z,65.98
2023-02-22T04:25:26.111Z,66.04
2023-02-22T04:27:53.709Z,66.21
2023-02-22T04:30:21.050Z,66.19
2023-02-22T04:32:47.870Z,66.16
2023-02-22T04:35:14.705Z,66.04
2023-02-22T04:37:41.504Z,66.27
2023-02-22T04:40:09.019Z,66.27
2023-02-22T04:42:37.064Z,66.04
2023-02-22T04:45:07.892Z,66.09
2023-02-22T04:47:36.068Z,66.13
2023-02-22T04:50:08.929Z,66.31
2023-02-22T04:52:35.691Z,66.18
2023-02-22T04:55:02.477Z,66.54
2023-02-22T04:57:29.257Z,66.53
2023-02-22T04:59:56.508Z,66.58
2023-02-22T05:02:23.411Z,66.76
2023-02-22T05:04:50.652Z,66.74
2023-02-22T05:07:17.674Z,66.89
2023-02-22T05:09:44.511Z,66.96
2023-02-22T05:12:11.350Z,66.76
2023-02-22T05:14:38.176Z,67.23
2023-02-22T05:17:05.782Z,67.10
2023-02-22T05:19:32.677Z,67.46
2023-02-22T05:22:00.139Z,67.19
2023-02-22T05:24:26.933Z,67.29
2023-02-22T05:26:53.734Z,67.11
2023-02-22T05:29:21.052Z,67.48
2023-02-22T05:31:47.972Z,67.44
2023-02-22T05:34:16.169Z,67.56
2023-02-22T05:36:43.120Z,67.70
2023-02-22T05:39:09.922Z,67.78
2023-02-22T05:41:36.736Z,67.93
2023-02-22T05:44:04.092Z,67.95
2023-02-22T05:46:30.889Z,68.27
2023-02-22T05:48:57.758Z,68.18
2023-02-22T05:51:24.716Z,68.08
2023-02-22T05:53:52.498Z,68.08
2023-02-22T05:56:28.410Z,68.46
2023-02-22T05:58:55.336Z,68.55
2023-02-22T06:01:22.150Z,68.47
2023-02-22T06:03:50.739Z,68.64
2023-02-22T06:06:20.062Z,68.45
2023-02-22T06:08:48.033Z,68.17
2023-02-22T06:11:15.013Z,68.36
2023-02-22T06:13:41.951Z,68.38
2023-02-22T06:16:08.766Z,68.38
2023-02-22T06:18:35.606Z,68.10
2023-02-22T06:21:02.556Z,68.19
2023-02-22T06:23:29.334Z,68.56
2023-02-22T06:25:56.113Z,67.93
2023-02-22T06:28:23.702Z,67.86
2023-02-22T06:30:50.529Z,68.11
2023-02-22T06:33:17.359Z,68.13
2023-02-22T06:35:45.134Z,68.07
2023-02-22T06:38:11.918Z,68.24
2023-02-22T06:40:38.711Z,68.14
2023-02-22T06:43:05.578Z,68.11
2023-02-22T06:45:32.388Z,68.17
2023-02-22T06:47:59.507Z,68.01
2023-02-22T06:50:31.162Z,68.19
2023-02-22T06:52:58.586Z,68.24
2023-02-22T06:55:29.504Z,68.14
2023-02-22T06:57:56.549Z,68.13
2023-02-22T07:00:26.145Z,68.67
2023-02-22T07:02:54.166Z,68.23
2023-02-22T07:05:23.731Z,68.50
2023-02-22T07:07:53.358Z,68.35
2023-02-22T07:10:28.587Z,68.38
2023-02-22T07:12:55.476Z,69.01
2023-02-22T07:15:25.890Z,68.53
2023-02-22T07:17:52.768Z,68.80
2023-02-22T07:20:20.498Z,68.91
2023-02-22T07:22:48.402Z,68.99
2023-02-22T07:25:15.362Z,68.85
2023-02-22T07:27:42.878Z,68.59
2023-02-22T07:30:30.482Z,68.65
2023-02-22T07:33:00.378Z,68.76
2023-02-22T07:35:30.288Z,68.93
2023-02-22T07:37:57.609Z,68.70
2023-02-22T07:40:27.099Z,68.79
2023-02-22T07:43:16.537Z,68.98
2023-02-22T07:45:43.939Z,69.23
2023-02-22T07:48:12.907Z,69.33
2023-02-22T07:50:40.628Z,69.23
2023-02-22T07:53:12.633Z,69.13
2023-02-22T07:55:39.428Z,69.04
2023-02-22T07:58:09.329Z,68.95
2023-02-22T08:00:42.256Z,68.70
2023-02-22T08:03:12.830Z,68.52
2023-02-22T08:05:44.496Z,68.22
2023-02-22T08:08:11.509Z,68.34
2023-02-22T08:10:38.488Z,68.21
2023-02-22T08:13:06.409Z,67.97
2023-02-22T08:15:36.556Z,67.72
2023-02-22T08:18:09.059Z,67.93
2023-02-22T08:20:37.424Z,67.93
2023-02-22T08:23:05.929Z,68.23
2023-02-22T08:25:33.030Z,68.08
2023-02-22T08:28:03.312Z,67.99
2023-02-22T08:30:31.736Z,68.13
2023-02-22T08:32:59.595Z,68.02
2023-02-22T08:35:27.462Z,67.90
2023-02-22T08:37:58.744Z,67.95
2023-02-22T08:40:29.436Z,68.04
2023-02-22T08:42:56.232Z,68.01
2023-02-22T08:45:23.111Z,67.87
2023-02-22T08:47:50.286Z,67.69
2023-02-22T08:50:24.305Z,67.69
2023-02-22T08:52:52.965Z,67.79
2023-02-22T08:55:30.441Z,67.65
2023-02-22T08:57:57.205Z,67.51
2023-02-22T09:00:29.458Z,67.55
2023-02-22T09:02:56.222Z,67.65
2023-02-22T09:05:23.111Z,67.57
2023-02-22T09:07:49.961Z,67.64
2023-02-22T09:10:24.894Z,67.60
2023-02-22T09:12:55.389Z,67.50
2023-02-22T09:15:22.756Z,67.43
2023-02-22T09:17:49.976Z,67.55
2023-02-22T09:20:19.384Z,67.57
2023-02-22T09:22:48.286Z,67.19
2023-02-22T09:25:17.220Z,67.07
2023-02-22T09:27:47.855Z,67.02
2023-02-22T09:30:26.158Z,66.87
2023-02-22T09:32:56.304Z,66.89
2023-02-22T09:35:27.318Z,67.01
2023-02-22T09:37:57.694Z,66.97
2023-02-22T09:40:32.057Z,66.69
2023-02-22T09:43:07.888Z,67.69
2023-02-22T09:45:51.421Z,67.49
2023-02-22T09:48:22.490Z,67.29
2023-02-22T09:50:52.944Z,67.35
2023-02-22T09:53:35.994Z,67.37
2023-02-22T09:56:11.814Z,67.07
2023-02-22T09:58:42.918Z,66.99
2023-02-22T10:01:27.938Z,66.91
2023-02-22T10:04:24.940Z,66.88
2023-02-22T10:07:36.965Z,66.83
2023-02-22T10:10:06.742Z,66.91
2023-02-22T10:13:00.260Z,67.02
2023-02-22T10:15:44.957Z,66.80
2023-02-22T10:18:32.770Z,67.58
2023-02-22T10:21:32.172Z,67.34
2023-02-22T10:24:24.664Z,67.02
2023-02-22T10:26:54.071Z,67.02
2023-02-22T10:29:34.810Z,66.45
2023-02-22T10:32:04.926Z,66.53
2023-02-22T10:34:42.482Z,66.23
2023-02-22T10:37:27.721Z,66.21
2023-02-22T10:40:23.115Z,66.38
2023-02-22T10:42:50.953Z,66.09
2023-02-22T10:45:28.346Z,66.25
2023-02-22T10:47:59.115Z,66.30
2023-02-22T10:50:32.108Z,65.83
2023-02-22T10:52:58.919Z,65.75
2023-02-22T10:55:25.883Z,65.90
2023-02-22T10:58:04.478Z,65.75
2023-02-22T11:00:37.398Z,65.45
2023-02-22T11:03:23.240Z,65.47
2023-02-22T11:05:50.750Z,65.48
2023-02-22T11:08:32.921Z,65.49
2023-02-22T11:11:25.328Z,65.59
2023-02-22T11:13:56.966Z,65.41
2023-02-22T11:16:47.570Z,65.18
2023-02-22T11:19:30.229Z,65.25
2023-02-22T11:22:07.835Z,65.12
2023-02-22T11:24:48.477Z,64.88
2023-02-22T11:27:43.921Z,64.95
2023-02-22T11:30:30.131Z,64.80
2023-02-22T11:33:23.773Z,64.93
2023-02-22T11:35:58.079Z,64.71
2023-02-22T11:38:34.663Z,64.70
2023-02-22T11:41:18.261Z,64.55
2023-02-22T11:43:48.050Z,64.45
2023-02-22T11:46:20.611Z,64.24
2023-02-22T11:49:02.273Z,64.11
2023-02-22T11:52:01.016Z,64.39
2023-02-22T11:55:41.891Z,64.59
2023-02-22T11:58:34.059Z,64.36
2023-02-22T12:01:27.026Z,64.39
2023-02-22T12:04:28.579Z,64.13
2023-02-22T12:07:54.055Z,64.24
2023-02-22T12:10:46.968Z,64.55
2023-02-22T12:13:27.050Z,64.08
2023-02-22T12:16:04.090Z,63.79
2023-02-22T12:18:56.279Z,63.60
2023-02-22T12:21:24.946Z,63.66
2023-02-22T12:23:55.413Z,63.31
2023-02-22T12:26:32.606Z,63.05
2023-02-22T12:29:12.161Z,63.18
2023-02-22T12:31:50.045Z,63.24
2023-02-22T12:34:21.616Z,62.82
2023-02-22T12:37:23.691Z,63.10
2023-02-22T12:39:59.905Z,62.98
2023-02-22T12:42:44.712Z,63.04
2023-02-22T12:45:28.236Z,62.88
2023-02-22T12:48:43.202Z,63.09
2023-02-22T12:51:47.179Z,63.14
2023-02-22T12:54:46.356Z,63.10
2023-02-22T12:57:25.765Z,62.98
2023-02-22T13:00:01.153Z,63.07
2023-02-22T13:02:37.076Z,62.80
2023-02-22T13:05:04.165Z,62.59
2023-02-22T13:07:40.316Z,62.57
2023-02-22T13:10:50.973Z,62.70
2023-02-22T13:13:30.356Z,62.76
2023-02-22T13:16:23.788Z,62.71
2023-02-22T13:19:14.230Z,62.56
2023-02-22T13:21:49.557Z,62.26
2023-02-22T13:24:31.386Z,62.16
2023-02-22T13:27:38.682Z,62.50
2023-02-22T13:30:14.812Z,62.36
2023-02-22T13:33:03.507Z,62.34
2023-02-22T13:35:56.345Z,62.19
2023-02-22T13:39:05.292Z,62.39
2023-02-22T13:41:47.083Z,62.46
2023-02-22T13:44:51.286Z,62.32
2023-02-22T13:47:36.327Z,62.34
2023-02-22T13:50:30.951Z,62.01
2023-02-22T13:52:59.861Z,61.90
2023-02-22T13:55:32.692Z,61.94
2023-02-22T13:58:05.035Z,61.93
2023-02-22T14:00:52.092Z,62.02
2023-02-22T14:03:23.866Z,61.74
2023-02-22T14:05:53.712Z,61.70
2023-02-22T14:08:21.636Z,61.49
2023-02-22T14:10:49.875Z,61.56
2023-02-22T14:13:26.645Z,61.49
2023-02-22T14:16:02.530Z,61.56
2023-02-22T14:18:43.821Z,61.43
2023-02-22T14:21:20.953Z,61.56
2023-02-22T14:23:56.421Z,61.49
2023-02-22T14:26:33.252Z,61.57
2023-02-22T14:29:17.108Z,61.53
2023-02-22T14:31:43.990Z,61.53
2023-02-22T14:34:15.508Z,61.38
2023-02-22T14:36:51.934Z,61.30
2023-02-22T14:39:42.035Z,61.42
2023-02-22T14:42:36.858Z,61.70
2023-02-22T14:45:09.501Z,61.45
2023-02-22T14:47:50.365Z,61.44
2023-02-22T14:50:23.999Z,61.48
2023-02-22T14:53:03.505Z,61.65
2023-02-22T14:55:34.001Z,61.27
2023-02-22T14:58:26.031Z,61.57
2023-02-22T15:00:56.688Z,61.50
2023-02-22T15:03:37.251Z,61.54
2023-02-22T15:06:17.268Z,61.55
2023-02-22T15:08:48.780Z,61.49
2023-02-22T15:11:31.035Z,61.52
2023-02-22T15:13:59.840Z,61.62
2023-02-22T15:16:31.254Z,61.67
2023-02-22T15:19:00.939Z,61.61
2023-02-22T15:21:29.852Z,61.54
2023-02-22T15:24:02.567Z,61.58
2023-02-22T15:26:51.924Z,61.63
2023-02-22T15:29:36.469Z,61.74
2023-02-22T15:32:19.013Z,61.87
2023-02-22T15:34:46.172Z,61.95
2023-02-22T15:37:25.138Z,62.10
2023-02-22T15:39:59.192Z,62.15
2023-02-22T15:42:30.269Z,62.19
2023-02-22T15:44:58.037Z,62.24
2023-02-22T15:47:31.980Z,62.07
2023-02-22T15:50:18.099Z,62.17
2023-02-22T15:53:20.357Z,62.40
2023-02-22T15:55:49.450Z,62.46
2023-02-22T15:58:16.084Z,62.46
2023-02-22T16:00:48.708Z,62.21
2023-02-22T16:03:27.640Z,62.45
2023-02-22T16:05:57.051Z,62.38
2023-02-22T16:08:31.127Z,62.45
2023-02-22T16:11:02.737Z,62.42
2023-02-22T16:13:33.997Z,62.43
2023-02-22T16:16:24.652Z,62.39
2023-02-22T16:18:52.364Z,62.32
2023-02-22T16:21:22.274Z,62.37
2023-02-22T16:24:10.207Z,62.51
2023-02-22T16:26:41.758Z,62.63
2023-02-22T16:29:09.190Z,62.34
2023-02-22T16:31:39.292Z,62.51
2023-02-22T16:34:07.980Z,62.37
2023-02-22T16:36:44.764Z,62.50
2023-02-22T16:39:24.491Z,62.42
2023-02-22T16:41:51.890Z,62.49
2023-02-22T16:44:18.735Z,62.55
2023-02-22T16:46:45.525Z,62.68
2023-02-22T16:49:14.717Z,62.66
2023-02-22T16:51:49.477Z,62.72
2023-02-22T16:54:25.995Z,62.82
2023-02-22T16:56:54.987Z,62.90
2023-02-22T16:59:22.468Z,63.08
2023-02-22T17:01:49.562Z,62.90
2023-02-22T17:04:20.215Z,63.08
2023-02-22T17:06:47.981Z,63.13
2023-02-22T17:09:15.565Z,63.04
2023-02-22T17:11:43.312Z,63.40
2023-02-22T17:14:16.850Z,63.33
2023-02-22T17:16:43.612Z,63.15
2023-02-22T17:19:17.235Z,63.22
2023-02-22T17:21:44.106Z,63.46
2023-02-22T17:24:14.229Z,63.34
2023-02-22T17:26:41.641Z,63.38
2023-02-22T17:29:08.544Z,63.35
2023-02-22T17:31:35.781Z,63.57
2023-02-22T17:34:04.884Z,63.32
2023-02-22T17:36:33.890Z,63.39
2023-02-22T17:39:00.837Z,63.42
2023-02-22T17:41:27.665Z,63.39
2023-02-22T17:43:54.485Z,63.54
2023-02-22T17:46:21.812Z,63.47
2023-02-22T17:48:48.639Z,63.41
2023-02-22T17:51:15.399Z,63.34
2023-02-22T17:53:42.173Z,63.59
2023-02-22T17:56:13.350Z,63.52
2023-02-22T17:58:41.423Z,63.37
2023-02-22T18:01:27.234Z,63.37
2023-02-22T18:03:59.405Z,63.40
2023-02-22T18:06:29.909Z,63.49
2023-02-22T18:08:59.378Z,63.43
2023-02-22T18:11:28.860Z,63.37
2023-02-22T18:13:57.632Z,63.36
2023-02-22T18:16:25.936Z,63.33
2023-02-22T18:18:56.411Z,63.43
2023-02-22T18:21:24.118Z,63.51
2023-02-22T18:23:50.899Z,63.59
2023-02-22T18:26:21.668Z,63.65
2023-02-22T18:28:49.244Z,63.59
2023-02-22T18:31:20.536Z,63.40
2023-02-22T18:33:51.140Z,63.48
2023-02-22T18:36:23.176Z,63.58
2023-02-22T18:38:52.820Z,63.70
2023-02-22T18:41:25.044Z,63.66
2023-02-22T18:43:54.991Z,63.71
2023-02-22T18:46:23.449Z,63.66
2023-02-22T18:48:54.499Z,63.73
2023-02-22T18:51:21.785Z,63.78
2023-02-22T18:53:49.877Z,63.85
2023-02-22T18:56:21.770Z,63.80
2023-02-22T18:58:57.163Z,63.91
2023-02-22T19:01:24.009Z,64.00
2023-02-22T19:03:51.889Z,63.88
2023-02-22T19:06:22.396Z,63.92
2023-02-22T19:08:50.626Z,63.84
2023-02-22T19:11:24.097Z,63.99
2023-02-22T19:13:53.908Z,63.88
2023-02-22T19:16:22.909Z,63.96
2023-02-22T19:18:52.789Z,64.00
2023-02-22T19:21:20.814Z,64.16
2023-02-22T19:23:48.646Z,63.99
2023-02-22T19:26:20.314Z,64.18
2023-02-22T19:28:48.313Z,64.11
2023-02-22T19:31:26.544Z,63.73
2023-02-22T19:33:53.721Z,64.04
2023-02-22T19:36:25.654Z,64.08
2023-02-22T19:38:52.702Z,64.43
2023-02-22T19:41:22.768Z,64.10
2023-02-22T19:43:52.519Z,64.27
2023-02-22T19:46:21.242Z,64.11
2023-02-22T19:48:53.689Z,64.27
2023-02-22T19:51:25.418Z,64.16
2023-02-22T19:53:53.180Z,64.20
2023-02-22T19:56:28.403Z,64.24
2023-02-22T19:58:58.621Z,64.11
2023-02-22T20:01:33.079Z,64.09
2023-02-22T20:04:22.904Z,64.02
2023-02-22T20:06:56.521Z,64.28
2023-02-22T20:09:29.990Z,64.28
2023-02-22T20:11:57.222Z,64.24
2023-02-22T20:14:28.303Z,64.31
2023-02-22T20:16:56.457Z,64.15
2023-02-22T20:19:24.435Z,64.43
2023-02-22T20:21:52.385Z,64.22
2023-02-22T20:24:19.402Z,64.16
2023-02-22T20:26:47.064Z,64.50
2023-02-22T20:29:14.985Z,64.44
2023-02-22T20:31:44.125Z,64.58
2023-02-22T20:34:11.754Z,64.56
2023-02-22T20:36:41.369Z,64.47
2023-02-22T20:39:13.809Z,64.52
2023-02-22T20:41:43.592Z,64.65
2023-02-22T20:44:14.704Z,64.61
2023-02-22T20:46:42.782Z,64.67
2023-02-22T20:49:13.381Z,64.77
2023-02-22T20:51:41.741Z,64.71
2023-02-22T20:54:11.474Z,64.93
2023-02-22T20:56:41.778Z,64.71
2023-02-22T20:59:12.953Z,64.79
2023-02-22T21:01:40.564Z,64.98
2023-02-22T21:04:13.428Z,64.80
2023-02-22T21:06:41.233Z,64.77
2023-02-22T21:09:20.265Z,65.03
2023-02-22T21:11:47.736Z,64.76
2023-02-22T21:14:18.771Z,64.98
2023-02-22T21:16:51.138Z,64.99
2023-02-22T21:19:25.849Z,65.04
2023-02-22T21:21:55.709Z,64.96
2023-02-22T21:24:25.138Z,64.96
2023-02-22T21:26:52.198Z,64.86
2023-02-22T21:29:19.552Z,65.00
2023-02-22T21:31:46.443Z,64.89
2023-02-22T21:34:17.382Z,64.91
2023-02-22T21:36:45.353Z,64.83
2023-02-22T21:39:18.084Z,64.90
2023-02-22T21:41:51.214Z,65.06
2023-02-22T21:44:18.764Z,64.97
2023-02-22T21:46:48.723Z,64.99
2023-02-22T21:49:16.395Z,64.93
2023-02-22T21:51:44.819Z,64.99
2023-02-22T21:54:12.455Z,65.24
2023-02-22T21:56:41.887Z,65.04
2023-02-22T21:59:14.175Z,65.10
2023-02-22T22:01:51.393Z,65.10
2023-02-22T22:04:22.579Z,65.26
2023-02-22T22:06:54.229Z,64.89
2023-02-22T22:09:23.510Z,65.11
2023-02-22T22:11:58.234Z,64.93
2023-02-22T22:14:26.379Z,65.04
2023-02-22T22:16:58.405Z,64.90
2023-02-22T22:19:29.556Z,65.01
2023-02-22T22:21:58.154Z,65.19
2023-02-22T22:24:25.711Z,64.96
2023-02-22T22:26:55.823Z,65.06
2023-02-22T22:29:28.620Z,65.20
2023-02-22T22:31:55.898Z,64.88
2023-02-22T22:34:29.368Z,64.87
2023-02-22T22:37:00.469Z,65.11
2023-02-22T22:39:27.715Z,65.06
2023-02-22T22:41:54.773Z,65.11
2023-02-22T22:44:26.213Z,64.92
2023-02-22T22:46:54.722Z,65.36
2023-02-22T22:49:23.604Z,65.26
2023-02-22T22:51:51.053Z,65.09
2023-02-22T22:54:18.209Z,65.09
2023-02-22T22:56:44.999Z,65.11
2023-02-22T22:59:13.142Z,65.05
2023-02-22T23:01:44.430Z,64.83
2023-02-22T23:04:16.901Z,65.02
2023-02-22T23:06:47.816Z,64.84
2023-02-22T23:09:24.459Z,64.82
2023-02-22T23:12:08.435Z,65.05
2023-02-22T23:14:43.886Z,64.84
2023-02-22T23:17:15.743Z,64.74
2023-02-22T23:19:44.828Z,64.70
2023-02-22T23:22:14.055Z,64.88
2023-02-22T23:24:41.112Z,64.81
2023-02-22T23:27:10.572Z,64.62
2023-02-22T23:29:40.427Z,64.49
2023-02-22T23:32:08.639Z,64.45
2023-02-22T23:34:37.092Z,64.58
2023-02-22T23:37:03.947Z,64.41
2023-02-22T23:39:30.791Z,64.33
2023-02-22T23:42:01.387Z,64.63
2023-02-22T23:44:29.073Z,64.45
2023-02-22T23:46:56.170Z,64.30
2023-02-22T23:49:35.450Z,64.42
2023-02-22T23:52:03.679Z,64.32
2023-02-22T23:54:36.790Z,64.35
2023-02-22T23:57:04.799Z,64.52
2023-02-22T23:59:32.993Z,64.28
